createdAt,value
2022-12-11T00:01:19.830Z,1.29
2022-12-11T00:03:48.551Z,1.41
2022-12-11T00:06:22.841Z,1.36
2022-12-11T00:08:55.261Z,1.45
2022-12-11T00:11:30.148Z,1.48
2022-12-11T00:14:16.548Z,1.57
2022-12-11T00:16:48.608Z,1.52
2022-12-11T00:19:19.666Z,1.55
2022-12-11T00:21:56.729Z,1.44
2022-12-11T00:24:27.608Z,1.50
2022-12-11T00:27:08.560Z,1.53
2022-12-11T00:29:39.702Z,1.54
2022-12-11T00:32:15.192Z,1.62
2022-12-11T00:34:44.502Z,1.58
2022-12-11T00:37:15.936Z,1.62
2022-12-11T00:39:46.740Z,1.61
2022-12-11T00:42:14.938Z,1.54
2022-12-11T00:44:42.781Z,1.64
2022-12-11T00:47:12.934Z,1.66
2022-12-11T00:49:50.016Z,1.73
2022-12-11T00:52:18.318Z,1.71
2022-12-11T00:54:46.829Z,1.75
2022-12-11T00:57:18.400Z,1.74
2022-12-11T00:59:45.699Z,1.75
2022-12-11T01:02:15.206Z,1.79
2022-12-11T01:04:42.525Z,1.77
2022-12-11T01:07:12.309Z,1.79
2022-12-11T01:09:59.882Z,1.87
2022-12-11T01:12:41.675Z,1.87
2022-12-11T01:15:17.895Z,1.87
2022-12-11T01:17:56.406Z,1.87
2022-12-11T01:20:29.608Z,1.88
2022-12-11T01:23:01.240Z,1.92
2022-12-11T01:25:42.701Z,1.97
2022-12-11T01:28:26.832Z,1.94
2022-12-11T01:31:16.945Z,1.98
2022-12-11T01:34:01.789Z,2.00
2022-12-11T01:36:34.083Z,2.00
2022-12-11T01:39:10.678Z,1.99
2022-12-11T01:41:45.067Z,1.93
2022-12-11T01:44:24.474Z,1.95
2022-12-11T01:46:57.188Z,1.94
2022-12-11T01:49:40.690Z,1.96
2022-12-11T01:52:21.380Z,2.03
2022-12-11T01:55:03.909Z,2.02
2022-12-11T01:57:38.810Z,2.00
2022-12-11T02:00:12.898Z,2.08
2022-12-11T02:02:43.372Z,2.01
2022-12-11T02:05:13.890Z,2.06
2022-12-11T02:07:46.589Z,2.07
2022-12-11T02:10:18.582Z,2.08
2022-12-11T02:12:59.511Z,2.11
2022-12-11T02:15:35.716Z,2.14
2022-12-11T02:18:14.687Z,2.14
2022-12-11T02:20:54.366Z,2.12
2022-12-11T02:23:52.332Z,2.12
2022-12-11T02:26:24.175Z,2.17
2022-12-11T02:28:55.262Z,2.12
2022-12-11T02:31:29.749Z,2.15
2022-12-11T02:34:22.244Z,2.17
2022-12-11T02:36:51.343Z,2.18
2022-12-11T02:39:24.220Z,2.19
2022-12-11T02:41:54.973Z,2.17
2022-12-11T02:44:29.417Z,2.17
2022-12-11T02:47:08.354Z,2.19
2022-12-11T02:49:40.167Z,2.27
2022-12-11T02:52:17.022Z,2.25
2022-12-11T02:54:47.507Z,2.23
2022-12-11T02:57:18.736Z,2.18
2022-12-11T02:59:50.103Z,2.17
2022-12-11T03:02:20.292Z,2.20
2022-12-11T03:04:51.673Z,2.28
2022-12-11T03:07:31.563Z,2.29
2022-12-11T03:10:00.987Z,2.27
2022-12-11T03:12:37.902Z,2.35
2022-12-11T03:15:16.427Z,2.38
2022-12-11T03:17:55.020Z,2.37
2022-12-11T03:20:27.462Z,2.36
2022-12-11T03:23:22.638Z,2.32
2022-12-11T03:26:05.290Z,2.35
2022-12-11T03:28:52.863Z,2.40
2022-12-11T03:31:42.168Z,2.39
2022-12-11T03:34:36.603Z,2.43
2022-12-11T03:37:05.426Z,2.44
2022-12-11T03:39:37.646Z,2.46
2022-12-11T03:42:11.872Z,2.49
2022-12-11T03:45:10.041Z,2.45
2022-12-11T03:47:51.195Z,2.43
2022-12-11T03:50:32.308Z,2.42
2022-12-11T03:53:12.847Z,2.46
2022-12-11T03:55:54.164Z,2.45
2022-12-11T03:58:25.124Z,2.45
2022-12-11T04:00:55.905Z,2.47
2022-12-11T04:03:34.527Z,2.48
2022-12-11T04:06:09.218Z,2.41
2022-12-11T04:08:44.118Z,2.36
2022-12-11T04:11:34.561Z,2.10
2022-12-11T04:14:30.238Z,2.35
2022-12-11T04:17:04.018Z,2.44
2022-12-11T04:19:52.014Z,2.44
2022-12-11T04:22:47.560Z,2.33
2022-12-11T04:25:25.218Z,2.42
2022-12-11T04:27:53.269Z,2.46
2022-12-11T04:30:22.604Z,2.50
2022-12-11T04:32:51.541Z,2.51
2022-12-11T04:35:21.628Z,2.54
2022-12-11T04:37:54.326Z,2.56
2022-12-11T04:40:24.743Z,2.44
2022-12-11T04:42:56.291Z,2.50
2022-12-11T04:45:26.911Z,2.54
2022-12-11T04:47:59.762Z,2.33
2022-12-11T04:50:26.708Z,2.45
2022-12-11T04:52:55.208Z,2.43
2022-12-11T04:55:22.670Z,2.48
2022-12-11T04:57:51.824Z,2.44
2022-12-11T05:00:21.585Z,2.48
2022-12-11T05:02:52.227Z,2.30
2022-12-11T05:05:20.672Z,2.44
2022-12-11T05:07:49.361Z,2.21
2022-12-11T05:10:19.445Z,2.27
2022-12-11T05:12:51.252Z,2.38
2022-12-11T05:15:23.614Z,2.41
2022-12-11T05:17:57.870Z,2.44
2022-12-11T05:20:24.712Z,2.51
2022-12-11T05:22:59.807Z,2.25
2022-12-11T05:25:29.699Z,2.01
2022-12-11T05:28:06.562Z,2.03
2022-12-11T05:30:41.485Z,2.05
2022-12-11T05:33:10.751Z,2.03
2022-12-11T05:35:37.787Z,2.06
2022-12-11T05:38:08.588Z,1.96
2022-12-11T05:40:35.885Z,2.02
2022-12-11T05:43:07.640Z,2.12
2022-12-11T05:45:38.328Z,2.07
2022-12-11T05:48:15.322Z,2.08
2022-12-11T05:50:44.839Z,2.21
2022-12-11T05:53:20.344Z,2.10
2022-12-11T05:56:06.542Z,2.02
2022-12-11T05:58:36.531Z,2.05
2022-12-11T06:01:15.586Z,1.97
2022-12-11T06:03:50.103Z,2.04
2022-12-11T06:06:25.221Z,2.35
2022-12-11T06:08:56.904Z,2.09
2022-12-11T06:11:24.547Z,2.01
2022-12-11T06:13:51.436Z,2.05
2022-12-11T06:16:17.936Z,2.35
2022-12-11T06:18:45.012Z,2.37
2022-12-11T06:21:19.250Z,2.18
2022-12-11T06:23:46.863Z,2.52
2022-12-11T06:26:13.890Z,2.26
2022-12-11T06:28:40.432Z,2.11
2022-12-11T06:31:06.828Z,2.10
2022-12-11T06:33:33.565Z,2.06
2022-12-11T06:36:07.391Z,2.07
2022-12-11T06:38:33.905Z,2.12
2022-12-11T06:41:01.941Z,2.04
2022-12-11T06:43:28.281Z,2.07
2022-12-11T06:45:59.163Z,2.07
2022-12-11T06:48:28.548Z,1.97
2022-12-11T06:50:54.919Z,1.98
2022-12-11T06:53:21.367Z,2.06
2022-12-11T06:55:47.699Z,2.10
2022-12-11T06:58:14.077Z,2.30
2022-12-11T07:00:40.512Z,2.31
2022-12-11T07:03:06.944Z,2.14
2022-12-11T07:05:33.658Z,2.10
2022-12-11T07:08:01.197Z,2.04
2022-12-11T07:10:27.679Z,1.93
2022-12-11T07:12:54.459Z,2.06
2022-12-11T07:15:20.933Z,1.94
2022-12-11T07:17:47.262Z,1.96
2022-12-11T07:20:13.628Z,2.01
2022-12-11T07:22:46.062Z,2.07
2022-12-11T07:25:13.245Z,2.10
2022-12-11T07:27:39.903Z,2.08
2022-12-11T07:30:06.499Z,2.22
2022-12-11T07:32:32.943Z,2.19
2022-12-11T07:34:59.542Z,2.18
2022-12-11T07:37:26.080Z,2.16
2022-12-11T07:39:52.481Z,2.56
2022-12-11T07:42:18.840Z,2.27
2022-12-11T07:44:45.967Z,2.24
2022-12-11T07:47:12.367Z,2.19
2022-12-11T07:49:38.774Z,2.19
2022-12-11T07:52:05.152Z,2.22
2022-12-11T07:54:31.465Z,2.23
2022-12-11T07:56:57.895Z,2.23
2022-12-11T07:59:24.340Z,2.23
2022-12-11T08:01:50.727Z,2.21
2022-12-11T08:04:17.022Z,2.26
2022-12-11T08:06:43.635Z,2.25
2022-12-11T08:09:15.961Z,2.24
2022-12-11T08:11:45.473Z,2.27
2022-12-11T08:14:11.848Z,2.22
2022-12-11T08:16:40.186Z,2.25
2022-12-11T08:19:06.801Z,2.26
2022-12-11T08:21:33.120Z,2.26
2022-12-11T08:23:59.664Z,2.17
2022-12-11T08:26:28.128Z,2.23
2022-12-11T08:28:54.584Z,2.24
2022-12-11T08:31:21.018Z,2.27
2022-12-11T08:33:48.003Z,2.29
2022-12-11T08:36:15.533Z,2.32
2022-12-11T08:38:42.063Z,2.33
2022-12-11T08:41:28.690Z,2.36
2022-12-11T08:43:55.583Z,2.38
2022-12-11T08:46:26.215Z,2.40
2022-12-11T08:48:53.103Z,2.34
2022-12-11T08:51:24.260Z,2.37
2022-12-11T08:53:51.297Z,2.33
2022-12-11T08:56:20.696Z,2.36
2022-12-11T08:58:47.103Z,2.39
2022-12-11T09:01:15.242Z,2.36
2022-12-11T09:03:42.469Z,2.40
2022-12-11T09:06:13.843Z,2.43
2022-12-11T09:08:40.552Z,2.40
2022-12-11T09:11:08.565Z,2.36
2022-12-11T09:13:34.971Z,2.35
2022-12-11T09:16:03.414Z,2.43
2022-12-11T09:18:29.912Z,2.45
2022-12-11T09:21:06.871Z,2.46
2022-12-11T09:23:33.284Z,2.46
2022-12-11T09:25:59.679Z,2.51
2022-12-11T09:28:26.247Z,2.53
2022-12-11T09:30:52.760Z,2.52
2022-12-11T09:33:19.233Z,2.49
2022-12-11T09:35:45.580Z,2.52
2022-12-11T09:38:11.994Z,2.47
2022-12-11T09:40:42.863Z,2.50
2022-12-11T09:43:15.399Z,2.49
2022-12-11T09:45:41.850Z,2.51
2022-12-11T09:48:09.757Z,2.51
2022-12-11T09:50:36.265Z,2.53
2022-12-11T09:53:15.755Z,2.53
2022-12-11T09:56:20.430Z,2.50
2022-12-11T09:58:53.441Z,2.31
2022-12-11T10:01:38.266Z,2.43
2022-12-11T10:04:07.391Z,2.44
2022-12-11T10:06:40.860Z,2.42
2022-12-11T10:09:10.142Z,2.40
2022-12-11T10:11:42.547Z,2.46
2022-12-11T10:14:33.933Z,2.48
2022-12-11T10:17:12.447Z,2.45
2022-12-11T10:19:40.518Z,2.44
2022-12-11T10:22:12.962Z,2.47
2022-12-11T10:25:09.887Z,2.48
2022-12-11T10:27:33.972Z,2.47
2022-12-11T10:30:12.797Z,2.43
2022-12-11T10:32:59.417Z,2.44
2022-12-11T10:35:35.806Z,2.47
2022-12-11T10:38:11.773Z,2.47
2022-12-11T10:40:40.056Z,2.46
2022-12-11T10:43:06.396Z,2.44
2022-12-11T10:45:32.787Z,2.43
2022-12-11T10:48:03.740Z,2.38
2022-12-11T10:50:30.391Z,2.33
2022-12-11T10:52:57.290Z,2.33
2022-12-11T10:55:50.145Z,2.31
2022-12-11T10:58:21.255Z,2.34
2022-12-11T11:00:49.161Z,2.19
2022-12-11T11:03:23.660Z,2.24
2022-12-11T11:05:50.687Z,2.27
2022-12-11T11:08:19.439Z,2.18
2022-12-11T11:10:51.996Z,2.20
2022-12-11T11:13:20.584Z,2.21
2022-12-11T11:15:47.149Z,2.20
2022-12-11T11:18:22.252Z,2.17
2022-12-11T11:20:48.720Z,2.14
2022-12-11T11:23:16.340Z,2.15
2022-12-11T11:25:54.438Z,2.15
2022-12-11T11:28:25.977Z,2.19
2022-12-11T11:31:12.222Z,2.23
2022-12-11T11:33:47.131Z,2.25
2022-12-11T11:36:21.738Z,2.31
2022-12-11T11:39:08.369Z,2.35
2022-12-11T11:41:34.737Z,2.38
2022-12-11T11:44:04.757Z,2.34
2022-12-11T11:46:52.868Z,2.35
2022-12-11T11:49:36.529Z,2.39
2022-12-11T11:52:15.836Z,2.45
2022-12-11T11:54:56.940Z,2.46
2022-12-11T11:57:32.433Z,2.32
2022-12-11T12:00:09.604Z,2.41
2022-12-11T12:02:36.607Z,2.45
2022-12-11T12:05:03.635Z,2.50
2022-12-11T12:07:41.516Z,2.49
2022-12-11T12:10:21.485Z,2.53
2022-12-11T12:12:57.919Z,2.61
2022-12-11T12:15:34.435Z,2.64
2022-12-11T12:18:33.699Z,2.64
2022-12-11T12:21:02.923Z,2.62
2022-12-11T12:23:43.384Z,2.61
2022-12-11T12:26:28.007Z,2.58
2022-12-11T12:29:00.382Z,2.56
2022-12-11T12:31:29.845Z,2.51
2022-12-11T12:34:05.283Z,2.31
2022-12-11T12:36:49.979Z,2.39
2022-12-11T12:39:19.490Z,2.55
2022-12-11T12:42:07.695Z,2.51
2022-12-11T12:44:42.305Z,2.56
2022-12-11T12:47:12.867Z,2.53
2022-12-11T12:49:39.298Z,2.61
2022-12-11T12:52:07.160Z,2.51
2022-12-11T12:54:35.220Z,2.54
2022-12-11T12:57:03.224Z,2.51
2022-12-11T12:59:29.631Z,2.36
2022-12-11T13:01:58.472Z,2.44
2022-12-11T13:04:54.379Z,2.51
2022-12-11T13:07:24.513Z,2.58
2022-12-11T13:10:16.972Z,2.57
2022-12-11T13:12:44.751Z,2.53
2022-12-11T13:15:23.966Z,2.61
2022-12-11T13:17:51.340Z,2.63
2022-12-11T13:20:18.974Z,2.62
2022-12-11T13:23:11.424Z,2.60
2022-12-11T13:25:48.460Z,2.43
2022-12-11T13:28:23.036Z,2.47
2022-12-11T13:31:07.491Z,2.51
2022-12-11T13:33:38.935Z,2.61
2022-12-11T13:36:14.950Z,2.69
2022-12-11T13:38:48.495Z,2.65
2022-12-11T13:41:14.853Z,2.70
2022-12-11T13:43:42.201Z,2.68
2022-12-11T13:46:11.229Z,2.77
2022-12-11T13:49:00.685Z,2.77
2022-12-11T13:51:29.050Z,2.73
2022-12-11T13:54:02.636Z,2.69
2022-12-11T13:56:29.028Z,2.64
2022-12-11T13:58:55.342Z,2.58
2022-12-11T14:01:23.187Z,2.66
2022-12-11T14:03:52.844Z,2.75
2022-12-11T14:06:19.382Z,2.71
2022-12-11T14:08:47.953Z,3.03
2022-12-11T14:11:20.767Z,2.77
2022-12-11T14:13:47.489Z,2.71
2022-12-11T14:16:19.160Z,2.63
2022-12-11T14:18:45.727Z,2.71
2022-12-11T14:21:25.384Z,2.73
2022-12-11T14:23:56.005Z,2.71
2022-12-11T14:26:24.085Z,2.77
2022-12-11T14:28:50.971Z,2.68
2022-12-11T14:31:23.304Z,2.68
2022-12-11T14:33:53.679Z,2.65
2022-12-11T14:36:20.624Z,2.54
2022-12-11T14:38:54.055Z,2.65
2022-12-11T14:41:25.063Z,2.70
2022-12-11T14:43:53.719Z,2.63
2022-12-11T14:46:32.908Z,2.60
2022-12-11T14:49:01.735Z,2.64
2022-12-11T14:51:30.248Z,2.49
2022-12-11T14:53:56.731Z,2.57
2022-12-11T14:56:24.982Z,2.47
2022-12-11T14:58:54.383Z,2.47
2022-12-11T15:01:22.686Z,2.44
2022-12-11T15:03:49.189Z,2.39
2022-12-11T15:06:26.103Z,2.35
2022-12-11T15:08:52.791Z,2.40
2022-12-11T15:11:19.678Z,2.41
2022-12-11T15:13:49.083Z,2.41
2022-12-11T15:16:16.045Z,2.21
2022-12-11T15:18:42.655Z,2.35
2022-12-11T15:21:11.248Z,2.70
2022-12-11T15:23:49.419Z,2.83
2022-12-11T15:26:15.778Z,2.84
2022-12-11T15:28:42.158Z,2.57
2022-12-11T15:31:24.142Z,2.47
2022-12-11T15:33:50.616Z,2.38
2022-12-11T15:36:30.959Z,2.40
2022-12-11T15:38:57.743Z,2.39
2022-12-11T15:41:27.047Z,2.41
2022-12-11T15:43:58.568Z,2.22
2022-12-11T15:46:25.449Z,2.33
2022-12-11T15:48:51.839Z,2.09
2022-12-11T15:51:18.302Z,2.18
2022-12-11T15:53:44.661Z,2.27
2022-12-11T15:56:17.329Z,2.21
2022-12-11T15:58:44.681Z,2.29
2022-12-11T16:01:12.117Z,2.09
2022-12-11T16:03:38.496Z,2.24
2022-12-11T16:06:04.935Z,2.20
2022-12-11T16:08:31.323Z,2.32
2022-12-11T16:10:57.789Z,2.30
2022-12-11T16:13:25.073Z,2.24
2022-12-11T16:15:52.175Z,2.27
2022-12-11T16:18:20.175Z,2.29
2022-12-11T16:20:47.169Z,2.30
2022-12-11T16:23:14.695Z,2.33
2022-12-11T16:25:42.050Z,2.32
2022-12-11T16:28:08.820Z,2.26
2022-12-11T16:30:36.413Z,2.31
2022-12-11T16:33:10.289Z,2.31
2022-12-11T16:35:38.642Z,2.32
2022-12-11T16:38:05.026Z,2.34
2022-12-11T16:40:31.486Z,2.35
2022-12-11T16:42:57.915Z,2.37
2022-12-11T16:45:25.580Z,2.37
2022-12-11T16:47:52.543Z,2.36
2022-12-11T16:50:19.087Z,2.35
2022-12-11T16:52:45.695Z,2.36
2022-12-11T16:55:13.097Z,2.24
2022-12-11T16:57:39.637Z,2.28
2022-12-11T17:00:07.047Z,2.29
2022-12-11T17:02:33.491Z,2.21
2022-12-11T17:04:59.857Z,2.20
2022-12-11T17:07:26.335Z,2.23
2022-12-11T17:09:52.761Z,2.18
2022-12-11T17:12:23.060Z,2.21
2022-12-11T17:14:49.411Z,2.20
2022-12-11T17:17:15.817Z,2.19
2022-12-11T17:19:42.235Z,2.18
2022-12-11T17:22:08.603Z,2.18
2022-12-11T17:24:34.916Z,2.18
2022-12-11T17:27:01.328Z,2.15
2022-12-11T17:29:27.752Z,2.22
2022-12-11T17:31:54.099Z,2.18
2022-12-11T17:34:20.467Z,2.15
2022-12-11T17:36:46.847Z,2.20
2022-12-11T17:39:13.266Z,2.16
2022-12-11T17:41:39.644Z,2.21
2022-12-11T17:44:06.102Z,2.19
2022-12-11T17:46:33.368Z,2.23
2022-12-11T17:49:01.749Z,2.25
2022-12-11T17:51:28.140Z,2.22
2022-12-11T17:53:55.630Z,2.24
2022-12-11T17:56:22.224Z,2.29
2022-12-11T17:58:48.541Z,2.25
2022-12-11T18:01:15.003Z,2.28
2022-12-11T18:03:41.882Z,2.25
2022-12-11T18:06:10.488Z,2.25
2022-12-11T18:08:37.477Z,2.26
2022-12-11T18:11:08.481Z,2.22
2022-12-11T18:13:35.708Z,2.26
2022-12-11T18:16:03.499Z,2.43
2022-12-11T18:18:30.434Z,2.58
2022-12-11T18:20:56.899Z,2.61
2022-12-11T18:23:23.728Z,2.65
2022-12-11T18:26:04.608Z,2.59
2022-12-11T18:28:40.651Z,2.64
2022-12-11T18:31:07.754Z,2.61
2022-12-11T18:33:35.775Z,2.49
2022-12-11T18:36:02.178Z,2.54
2022-12-11T18:38:52.115Z,2.49
2022-12-11T18:41:19.416Z,2.50
2022-12-11T18:43:46.545Z,2.57
2022-12-11T18:46:15.452Z,2.49
2022-12-11T18:48:42.930Z,2.41
2022-12-11T18:51:12.507Z,2.31
2022-12-11T18:53:39.858Z,2.17
2022-12-11T18:56:10.988Z,2.37
2022-12-11T18:58:37.885Z,2.33
2022-12-11T19:01:09.686Z,2.41
2022-12-11T19:03:36.882Z,2.50
2022-12-11T19:06:14.458Z,2.51
2022-12-11T19:08:41.852Z,2.52
2022-12-11T19:11:13.910Z,2.58
2022-12-11T19:13:40.848Z,2.59
2022-12-11T19:16:07.726Z,2.61
2022-12-11T19:18:34.707Z,2.61
2022-12-11T19:21:08.558Z,2.51
2022-12-11T19:23:35.729Z,2.41
2022-12-11T19:26:02.414Z,2.42
2022-12-11T19:28:28.961Z,2.49
2022-12-11T19:30:55.441Z,2.53
2022-12-11T19:33:21.924Z,2.53
2022-12-11T19:35:48.266Z,2.43
2022-12-11T19:38:14.627Z,2.46
2022-12-11T19:40:44.657Z,2.50
2022-12-11T19:43:11.526Z,2.52
2022-12-11T19:45:38.013Z,2.47
2022-12-11T19:48:04.609Z,2.48
2022-12-11T19:50:31.648Z,2.39
2022-12-11T19:52:58.100Z,2.32
2022-12-11T19:55:24.428Z,2.42
2022-12-11T19:57:52.020Z,2.19
2022-12-11T20:00:18.832Z,2.30
2022-12-11T20:02:45.235Z,2.33
2022-12-11T20:05:11.985Z,2.41
2022-12-11T20:07:40.647Z,2.50
2022-12-11T20:10:09.612Z,2.41
2022-12-11T20:12:35.944Z,2.42
2022-12-11T20:15:04.031Z,2.42
2022-12-11T20:17:31.335Z,2.43
2022-12-11T20:19:57.737Z,2.45
2022-12-11T20:22:24.110Z,2.35
2022-12-11T20:24:50.681Z,2.39
2022-12-11T20:27:17.045Z,2.18
2022-12-11T20:29:43.369Z,2.37
2022-12-11T20:32:11.552Z,2.43
2022-12-11T20:34:38.440Z,2.39
2022-12-11T20:37:05.232Z,2.43
2022-12-11T20:39:32.042Z,2.41
2022-12-11T20:41:58.463Z,2.45
2022-12-11T20:44:24.847Z,2.43
2022-12-11T20:46:51.592Z,2.29
2022-12-11T20:49:18.026Z,2.39
2022-12-11T20:51:44.407Z,2.41
2022-12-11T20:54:10.832Z,2.36
2022-12-11T20:56:37.629Z,2.36
2022-12-11T20:59:04.005Z,2.38
2022-12-11T21:01:31.372Z,2.43
2022-12-11T21:03:58.532Z,2.31
2022-12-11T21:06:26.902Z,2.41
2022-12-11T21:09:05.473Z,2.45
2022-12-11T21:11:38.132Z,2.46
2022-12-11T21:14:08.423Z,2.48
2022-12-11T21:16:40.550Z,2.51
2022-12-11T21:19:17.046Z,2.43
2022-12-11T21:21:54.187Z,2.29
2022-12-11T21:24:27.987Z,2.37
2022-12-11T21:27:00.529Z,2.43
2022-12-11T21:29:27.779Z,2.37
2022-12-11T21:31:54.264Z,2.31
2022-12-11T21:34:25.293Z,2.26
2022-12-11T21:36:56.401Z,2.19
2022-12-11T21:39:23.888Z,2.26
2022-12-11T21:41:50.257Z,2.30
2022-12-11T21:47:03.272Z,2.20
2022-12-11T21:49:29.658Z,2.31
2022-12-11T21:51:56.134Z,2.25
2022-12-11T21:54:22.546Z,2.29
2022-12-11T21:56:48.947Z,2.21
2022-12-11T21:59:15.512Z,2.28
2022-12-11T22:01:46.665Z,2.37
2022-12-11T22:04:13.635Z,2.30
2022-12-11T22:06:43.497Z,2.35
2022-12-11T22:09:12.399Z,2.34
2022-12-11T22:11:39.157Z,2.24
2022-12-11T22:14:06.889Z,2.27
2022-12-11T22:16:34.086Z,2.26
2022-12-11T22:19:00.812Z,2.26
2022-12-11T22:21:32.356Z,2.26
2022-12-11T22:24:07.091Z,2.36
2022-12-11T22:26:39.700Z,2.39
2022-12-11T22:29:20.201Z,2.46
2022-12-11T22:31:56.561Z,2.37
2022-12-11T22:34:42.896Z,2.37
2022-12-11T22:37:24.311Z,2.39
2022-12-11T22:39:52.363Z,2.43
2022-12-11T22:42:18.818Z,2.43
2022-12-11T22:44:45.235Z,2.30
2022-12-11T22:47:11.752Z,2.31
2022-12-11T22:49:38.146Z,2.35
2022-12-11T22:52:04.677Z,2.30
2022-12-11T22:54:31.176Z,2.34
2022-12-11T22:56:57.606Z,2.29
2022-12-11T22:59:24.073Z,2.27
2022-12-11T23:01:50.405Z,2.34
2022-12-11T23:04:17.374Z,2.30
2022-12-11T23:06:43.748Z,2.38
2022-12-11T23:09:10.544Z,2.38
2022-12-11T23:11:38.331Z,2.40
2022-12-11T23:14:05.444Z,2.38
2022-12-11T23:16:32.920Z,2.42
2022-12-11T23:18:59.362Z,2.43
2022-12-11T23:21:26.768Z,2.38
2022-12-11T23:23:53.696Z,2.37
2022-12-11T23:26:20.655Z,2.38
2022-12-11T23:28:47.524Z,2.37
2022-12-11T23:31:14.585Z,2.43
2022-12-11T23:33:40.998Z,2.44
2022-12-11T23:36:07.826Z,2.39
2022-12-11T23:38:34.487Z,2.42
2022-12-11T23:41:02.184Z,2.45
2022-12-11T23:43:28.639Z,2.47
2022-12-11T23:45:55.886Z,2.46
2022-12-11T23:48:23.720Z,2.44
2022-12-11T23:50:50.729Z,2.46
2022-12-11T23:53:20.932Z,2.44
2022-12-11T23:55:49.871Z,2.46
2022-12-11T23:58:40.201Z,2.48
